Terminal Aerodrome Forecast
Issued by NWS Mt. Holly, NJ

Home | Current Version | Previous Version | Text Only | Print | Product List | Glossary On
Versions: 1 2 3 4 5 6 7 8 9 10 11 12 13 14 15 16 17
000
FTUS41 KPHI 221739
TAFTTN
TAF
KTTN 221739Z 2218/2318 15006KT P6SM -SHRA OVC035
      TEMPO 2218/2222 4SM SHRA BR OVC015
     FM222300 VRB03KT 4SM BR OVC015
     FM230500 VRB03KT 2SM BR OVC008
     FM231200 31006KT P6SM BKN015
     FM231500 34008KT P6SM SCT045=

USA.gov is the U.S. government's official web portal to all federal, state and local government web resources and services.